Watts Mill, Alabama
Current Conditions -  °F | °C
As of 2:53 PM on Monday 24 Nov 2014 (Local Time) from KANB Reporting Station
Clear Clear  
Wind Chill: 71°   Ceiling: Unl
Heat Index: 71°   Visibility: 10mi
Dew Point: 47°   Wind: 14mph
Humidity: 42%   Direction: 270°W
Pressure: 29.83"   Gusts: 20mph
Location:  33.3533°N, 85.7343°W
Report Text: KANB 242053Z AUTO 27012G17KT 10SM CLR 22/08 A2983 RMK AO2 SLP097 T02170083 53009
Loading
Personal Weather Stations






























Interactive Weather Map New forecast layout! Learn more

10-Day Weather Forecast

Advertisements
Track Severe Weather on mobile